Airfield :
LOGIN :

Register | Disclaimer

   EN    FR    IT 

 










Legend :    VFR   Marginal VFR   IFR   Intensive IFR   Very Intensive IFR
Visi :
Ceiling :
>= 8 km
>= 3000ft
5 to 8 km
1000 to 3000 ft
1500m to 5 km
500 to 1000 ft
800 to 1500m
200 to 500 ft
< 800m
< 200 ft
Symbols :   Thunderstorms  Fog  Heavy snow  Heavy precipitations  Wind > 20 kt
SIGMETs :     Misc.  Thunderstorms  Icing  Turbulence  Mountain Waves  Volcanic Ashes







- Airport Elevation : 659 ft
- IATA code : LYN
- Download approach charts


LFLY - Lyon Bron

CURRENT METAR :
  • 171130Z AUTO 26003KT 6000 SCT004 BKN014 OVC020 02/01 Q1027 TEMPO 4000 -RASN

EXPIRED METARs :
  • 171100Z AUTO 23003KT 5000 -RA BR SCT004 SCT009 BKN021 01/01 Q1027 TEMPO 1400 -SN BKN008
  • 171030Z AUTO 23003KT 5000 -SN BR SCT005 BKN009 BKN016 01/01 Q1027 TEMPO 1400 -SN OVC004
  • 171000Z AUTO 24003KT 4400 2100 -SN BR BKN004 BKN015 OVC027 02/01 Q1027 TEMPO 1400 -SN
  • 170930Z AUTO 24002KT 6000 -RA FEW004 OVC027 02/01 Q1026 TEMPO 1400 -SN OVC004
  • 170900Z AUTO 00000KT 4400 -SNRA BR OVC030 01/01 Q1026 TEMPO 1400 -SN OVC004
  • 170830Z AUTO 00000KT 4300 -DZ BR FEW004 OVC037 01/01 Q1026 TEMPO 1400 -SN OVC004

TAF TAF LFLY
Valid from the 17 at 12:00 until the 18 at 12:00 UTC


171100Z 1712/1812 VRB02KT 9999 BKN030
PROB30
TEMPO 1712/1718 4000 -RASN BKN012 OVC030
PROB40
TEMPO 1721/1804 2000 BR BKN003
BECMG 1804/1806 18006KT 4000 -SN BKN009 OVC030
BECMG 1806/1807 1200 SN BKN006 OVC020
PROB40
TEMPO 1807/1809 0500 +SN
BECMG 1809/1811 8000 -RA BKN009 OVC030
ATIS : +33 4 72 15 87 96
No reported NOTAMs for that airfield.
2 SIGMETs reported for the Marseille FIR (LFMM) :
 
Severe turbulence
LFMM SIGMET 3 VALID 171100/171500 LFPW
LFMM MARSEILLE FIR/UIR SEV TURB FCST WI N4045 E00430 - N4200 E00430 - N4215 E00230 - N4330 E00245 - N4315 E00645 - N4045 E00615 - N4045 E00430 SFC/FL050 STNR WKN=
Severe turbulence
LFMM SIGMET 2 VALID 170700/171100 LFPW
LFMM MARSEILLE FIR/UIR SEV TURB FCST WI N4030 E00430 - N4200 E00430 - N4215 E00245 - N4245 E00245 - N4345 E00530 - N4115 E00645 - N4030 E00430 SFC/FL050 STNR WKN=



MET'MAP, your aeronautical weather chart ! - Copyright ORBIFLY December 2007 - Disclaimer

ORBIFLY MET'MAP TEAM :

Programming & Development : Alexandra Zaïnal
Concept & Development : Baudouin d'Aumeries
Co-Development & Prog : Marc-Olivier Méhu
Technical & hardware support : Manuel Goepfert

Contact : metmap@orbifly.com




SOURCES & CREDITS :

   NOAA